Time;durP1;ratioP1;P1;durP2;ratioP2;P2;SDS_P1;SDS_P2;PMS_P1;PMS_P2;Temp;Humidity;BMP_temperature;BMP_pressure;BME280_temperature;BME280_humidity;BME280_pressure;Samples;Min_cycle;Max_cycle;Signal;HPM_P1;HPM_P2
2023/04/19 00:02:10;;;;;;;24.88;21.20;;;;;;;8.44;94.50;102542.88;5113185;28;20039;-56
2023/04/19 00:04:36;;;;;;;22.33;19.92;;;;;;;8.49;94.25;102544.09;5112795;28;20066;-56
2023/04/19 00:07:02;;;;;;;22.90;20.40;;;;;;;8.53;93.99;102542.63;5112940;28;20042;-55
2023/04/19 00:09:27;;;;;;;23.23;19.88;;;;;;;8.56;93.89;102545.41;5112559;28;20032;-56
2023/04/19 00:11:53;;;;;;;23.25;20.15;;;;;;;8.56;94.11;102540.28;5113290;28;20028;-56
2023/04/19 00:14:18;;;;;;;21.98;19.52;;;;;;;8.60;93.91;102543.91;5112739;28;20047;-56
2023/04/19 00:16:43;;;;;;;22.60;20.13;;;;;;;8.62;93.88;102542.34;5112863;28;20055;-56
2023/04/19 00:19:10;;;;;;;22.27;19.88;;;;;;;8.66;93.73;102542.66;5112927;28;20059;-56
2023/04/19 00:21:35;;;;;;;23.63;20.73;;;;;;;8.69;93.03;102542.84;5112996;28;20069;-56
2023/04/19 00:24:02;;;;;;;26.50;19.95;;;;;;;8.74;93.23;102538.00;5112601;28;20036;-56
2023/04/19 00:26:27;;;;;;;25.15;20.50;;;;;;;8.75;93.08;102546.59;5112635;28;20412;-56
2023/04/19 00:28:52;;;;;;;21.95;18.98;;;;;;;8.76;93.05;102536.41;5113292;28;20035;-56
2023/04/19 00:31:17;;;;;;;23.95;19.58;;;;;;;8.76;93.03;102533.84;5112087;28;20027;-56
2023/04/19 00:33:43;;;;;;;23.20;20.48;;;;;;;8.77;93.34;102533.03;5111885;28;20028;-55
2023/04/19 00:36:09;;;;;;;23.13;19.48;;;;;;;8.79;93.24;102533.13;5114466;28;20027;-55
2023/04/19 00:38:34;;;;;;;24.02;19.33;;;;;;;8.82;93.06;102529.09;5115518;28;20034;-57
2023/04/19 00:41:00;;;;;;;24.55;20.60;;;;;;;8.82;93.03;102525.59;5116401;28;20565;-57
2023/04/19 00:43:25;;;;;;;21.77;19.48;;;;;;;8.83;93.12;102528.31;5115999;28;20023;-56
2023/04/19 00:45:50;;;;;;;22.40;19.98;;;;;;;8.83;92.97;102525.72;5116454;28;20500;-57
2023/04/19 00:48:16;;;;;;;24.98;20.35;;;;;;;8.83;93.11;102529.97;5116660;28;20027;-57
2023/04/19 00:50:43;;;;;;;26.38;20.48;;;;;;;8.83;93.50;102527.41;5117216;28;20028;-57
2023/04/19 00:53:09;;;;;;;23.45;20.27;;;;;;;8.85;93.09;102528.41;5115626;28;20072;-56
2023/04/19 00:55:35;;;;;;;23.65;20.08;;;;;;;8.84;93.45;102529.19;5116541;28;20073;-57
2023/04/19 00:58:01;;;;;;;23.60;19.77;;;;;;;8.83;93.66;102525.72;5116781;28;20024;-57
2023/04/19 01:00:26;;;;;;;23.58;20.20;;;;;;;8.83;93.84;102530.88;5116174;28;20048;-55
2023/04/19 01:02:52;;;;;;;22.48;19.52;;;;;;;8.81;93.96;102524.72;5116000;28;20039;-56
2023/04/19 01:05:18;;;;;;;23.45;20.60;;;;;;;8.84;94.14;102524.91;5115763;28;20027;-55
2023/04/19 01:07:43;;;;;;;26.63;20.10;;;;;;;8.81;94.17;102519.59;5115417;28;20024;-56
2023/04/19 01:10:09;;;;;;;25.13;20.90;;;;;;;8.83;94.19;102520.59;5116096;28;20092;-56
2023/04/19 01:12:34;;;;;;;23.52;19.60;;;;;;;8.82;94.85;102523.03;5114773;28;20471;-57
2023/04/19 01:14:59;;;;;;;24.25;19.48;;;;;;;8.83;94.93;102524.81;5116849;28;20020;-57
2023/04/19 01:17:26;;;;;;;22.88;19.63;;;;;;;8.83;94.82;102518.03;5116167;28;20058;-57
2023/04/19 01:19:58;;;;;;;23.60;19.95;;;;;;;8.85;94.94;102529.28;5116170;28;20020;-57
2023/04/19 01:22:23;;;;;;;22.65;20.00;;;;;;;8.84;95.04;102522.34;5115643;28;20027;-56
2023/04/19 01:24:50;;;;;;;25.67;20.65;;;;;;;8.84;95.38;102509.50;5116256;28;20030;-56
2023/04/19 01:27:16;;;;;;;22.75;20.25;;;;;;;8.84;95.70;102521.47;5116185;28;20096;-57
2023/04/19 01:29:42;;;;;;;23.23;20.65;;;;;;;8.84;96.03;102517.19;5116099;28;20147;-57
2023/04/19 01:32:07;;;;;;;27.75;21.05;;;;;;;8.84;96.13;102518.91;5116080;28;20055;-57
2023/04/19 01:34:32;;;;;;;24.73;20.60;;;;;;;8.84;96.23;102527.50;5115406;28;20486;-56
2023/04/19 01:36:58;;;;;;;25.20;20.52;;;;;;;8.84;96.79;102524.91;5115602;28;20031;-56
2023/04/19 01:39:25;;;;;;;24.33;20.80;;;;;;;8.84;96.95;102522.34;5115738;28;20038;-57
2023/04/19 01:41:50;;;;;;;26.25;21.38;;;;;;;8.84;97.00;102524.03;5115788;28;20028;-57
2023/04/19 01:44:15;;;;;;;23.08;20.58;;;;;;;8.83;97.38;102514.53;5115405;28;20035;-57
2023/04/19 01:46:41;;;;;;;26.88;20.13;;;;;;;8.83;97.55;102523.16;5115418;28;20026;-57
2023/04/19 01:49:07;;;;;;;25.98;20.15;;;;;;;8.83;97.93;102518.03;5115386;28;20027;-57
2023/04/19 01:51:32;;;;;;;27.30;21.65;;;;;;;8.84;98.17;102511.19;5115269;28;20028;-57
2023/04/19 01:53:57;;;;;;;26.40;21.75;;;;;;;8.88;98.03;102514.06;5115354;28;20016;-57
2023/04/19 01:56:23;;;;;;;24.95;21.27;;;;;;;8.90;98.32;102515.03;5114589;28;20051;-57
2023/04/19 01:58:48;;;;;;;26.60;20.63;;;;;;;8.90;98.36;102506.44;5115698;28;20031;-57
2023/04/19 02:01:13;;;;;;;24.50;20.25;;;;;;;8.95;98.70;102504.13;5115702;28;20020;-57
2023/04/19 02:03:39;;;;;;;26.90;20.52;;;;;;;8.94;98.79;102502.38;5114591;28;20024;-57
2023/04/19 02:06:04;;;;;;;26.90;21.45;;;;;;;8.96;98.80;102495.63;5114572;28;20463;-57
2023/04/19 02:08:30;;;;;;;31.77;21.85;;;;;;;8.98;99.39;102499.19;5114178;28;20062;-57
2023/04/19 02:10:55;;;;;;;27.52;21.88;;;;;;;8.99;99.38;102493.28;5114905;28;20062;-57
2023/04/19 02:13:21;;;;;;;28.50;22.45;;;;;;;9.03;99.16;102498.69;5115110;28;20031;-56
2023/04/19 02:15:46;;;;;;;26.50;21.23;;;;;;;9.04;99.40;102497.03;5115530;28;20039;-57
2023/04/19 02:18:12;;;;;;;27.13;21.80;;;;;;;9.06;99.45;102490.28;5114666;28;20031;-56
2023/04/19 02:20:37;;;;;;;26.73;22.00;;;;;;;9.06;99.54;102487.69;5114994;28;20068;-57
2023/04/19 02:23:03;;;;;;;25.48;21.73;;;;;;;9.10;99.21;102494.81;5114320;28;20034;-57
2023/04/19 02:25:28;;;;;;;26.65;21.65;;;;;;;9.07;99.52;102489.47;5114677;28;20027;-57
2023/04/19 02:27:53;;;;;;;26.88;21.45;;;;;;;9.06;99.49;102492.84;5115420;28;20103;-57
2023/04/19 02:30:19;;;;;;;30.27;23.05;;;;;;;9.06;99.83;102492.84;5114496;28;20035;-57
2023/04/19 02:32:47;;;;;;;27.65;22.42;;;;;;;9.05;100.00;102493.63;5115010;28;20497;-57
2023/04/19 02:35:12;;;;;;;31.45;22.75;;;;;;;9.06;99.89;102488.59;5114946;28;20544;-57
2023/04/19 02:37:37;;;;;;;28.00;21.75;;;;;;;9.06;99.87;102495.41;5113864;28;20023;-53
2023/04/19 02:40:04;;;;;;;25.83;22.17;;;;;;;9.05;100.00;102491.06;5114621;28;20020;-57
2023/04/19 02:42:29;;;;;;;26.02;21.40;;;;;;;9.05;99.92;102488.50;5114697;28;20027;-57
2023/04/19 02:44:54;;;;;;;26.02;21.40;;;;;;;9.06;99.91;102490.28;5114360;28;20378;-57
2023/04/19 02:47:20;;;;;;;26.15;21.88;;;;;;;9.03;100.00;102497.81;5114379;28;20023;-57
2023/04/19 02:49:45;;;;;;;29.38;22.15;;;;;;;9.01;100.00;102491.66;5114977;28;20375;-57
2023/04/19 02:52:11;;;;;;;26.75;20.27;;;;;;;8.99;100.00;102493.28;5114149;28;20092;-57
2023/04/19 02:54:36;;;;;;;29.42;21.63;;;;;;;8.97;100.00;102498.28;5114117;28;20122;-57
2023/04/19 02:57:01;;;;;;;26.98;20.35;;;;;;;8.95;99.95;102504.13;5114453;28;20023;-53
2023/04/19 02:59:27;;;;;;;24.20;20.58;;;;;;;8.93;100.00;102495.44;5113512;28;20039;-57
2023/04/19 03:01:52;;;;;;;26.10;20.15;;;;;;;8.90;100.00;102504.75;5114198;28;20067;-57
2023/04/19 03:04:17;;;;;;;24.02;20.05;;;;;;;8.90;99.90;102498.72;5113926;28;20066;-57
2023/04/19 03:06:43;;;;;;;26.00;19.90;;;;;;;8.88;100.00;102498.63;5113973;28;20023;-57
2023/04/19 03:09:09;;;;;;;23.58;20.10;;;;;;;8.85;100.00;102494.97;5113292;28;20051;-56
2023/04/19 03:11:35;;;;;;;24.02;19.40;;;;;;;8.84;100.00;102495.75;5114245;28;20031;-57
2023/04/19 03:14:01;;;;;;;23.23;19.38;;;;;;;8.83;100.00;102494.88;5113766;28;20031;-57
2023/04/19 03:16:26;;;;;;;25.00;19.20;;;;;;;8.81;100.00;102499.03;5113801;28;20555;-57
2023/04/19 03:18:51;;;;;;;22.80;18.75;;;;;;;8.80;100.00;102499.81;5114090;28;20031;-57
2023/04/19 03:21:16;;;;;;;25.08;19.38;;;;;;;8.80;100.00;102491.22;5113374;28;20023;-56
2023/04/19 03:23:42;;;;;;;23.30;19.13;;;;;;;8.79;100.00;102498.06;5113334;28;20028;-55
2023/04/19 03:26:07;;;;;;;26.25;19.50;;;;;;;8.77;100.00;102489.34;5114216;28;20031;-57
2023/04/19 03:28:33;;;;;;;25.25;20.10;;;;;;;8.75;100.00;102488.34;5113142;28;20143;-57
2023/04/19 03:30:59;;;;;;;24.77;19.58;;;;;;;8.76;100.00;102491.81;5113872;28;20431;-57
2023/04/19 03:33:24;;;;;;;24.13;19.33;;;;;;;8.72;100.00;102491.59;5113065;28;20110;-57
2023/04/19 03:35:50;;;;;;;22.63;18.88;;;;;;;8.72;100.00;102485.59;5113786;28;20023;-57
2023/04/19 03:38:15;;;;;;;25.00;19.00;;;;;;;8.72;100.00;102490.72;5113033;28;20015;-57
2023/04/19 03:40:41;;;;;;;23.92;19.27;;;;;;;8.73;100.00;102488.25;5113208;28;20031;-57
2023/04/19 03:43:06;;;;;;;23.88;18.90;;;;;;;8.72;100.00;102476.19;5113664;28;20019;-57
2023/04/19 03:45:31;;;;;;;24.55;19.33;;;;;;;8.72;100.00;102480.44;5113437;28;20076;-56
2023/04/19 03:47:57;;;;;;;22.80;18.77;;;;;;;8.70;100.00;102485.50;5113176;28;20045;-57
2023/04/19 03:50:22;;;;;;;24.40;18.83;;;;;;;8.70;100.00;102487.16;5113208;28;20031;-57
2023/04/19 03:52:47;;;;;;;23.33;19.05;;;;;;;8.69;100.00;102480.28;5113156;28;20020;-57
2023/04/19 03:55:13;;;;;;;24.55;18.63;;;;;;;8.70;100.00;102487.16;5113219;28;20081;-56
2023/04/19 03:57:38;;;;;;;20.95;17.83;;;;;;;8.70;100.00;102490.66;5112932;28;20099;-57
2023/04/19 04:00:07;;;;;;;25.23;18.80;;;;;;;8.68;100.00;102484.50;5113575;28;20114;-57
2023/04/19 04:02:36;;;;;;;24.25;18.30;;;;;;;8.69;100.00;102490.56;5112460;28;20082;-53
2023/04/19 04:05:01;;;;;;;24.77;18.92;;;;;;;8.65;100.00;102488.56;5113209;28;20023;-56
2023/04/19 04:07:26;;;;;;;25.48;18.83;;;;;;;8.64;100.00;102489.38;5112750;28;20119;-56
2023/04/19 04:09:52;;;;;;;22.70;19.10;;;;;;;8.63;100.00;102490.16;5112665;28;20012;-57
2023/04/19 04:12:17;;;;;;;23.52;17.77;;;;;;;8.59;100.00;102489.06;5113011;28;20032;-56
2023/04/19 04:14:42;;;;;;;24.10;17.92;;;;;;;8.56;100.00;102491.44;5113270;28;20417;-57
2023/04/19 04:17:08;;;;;;;20.90;17.58;;;;;;;8.53;100.00;102498.94;5112766;28;20027;-57
2023/04/19 04:19:33;;;;;;;22.80;17.50;;;;;;;8.49;100.00;102487.56;5112947;28;20032;-57
2023/04/19 04:21:58;;;;;;;23.35;18.15;;;;;;;8.44;100.00;102478.63;5112872;28;20224;-57
2023/04/19 04:24:25;;;;;;;22.33;17.65;;;;;;;8.39;100.00;102486.06;5111740;28;20027;-57
2023/04/19 04:26:50;;;;;;;20.88;17.42;;;;;;;8.32;100.00;102483.00;5112903;28;20540;-56
2023/04/19 04:29:16;;;;;;;22.20;17.38;;;;;;;8.24;100.00;102491.09;5112942;28;20114;-57
2023/04/19 04:31:41;;;;;;;21.00;15.70;;;;;;;8.20;100.00;102486.53;5112398;28;20024;-56
2023/04/19 04:34:08;;;;;;;20.40;16.08;;;;;;;8.17;100.00;102493.16;5113106;28;20392;-57
2023/04/19 04:36:35;;;;;;;20.52;15.23;;;;;;;8.06;100.00;102497.59;5112206;28;20035;-56
2023/04/19 04:39:00;;;;;;;21.17;15.82;;;;;;;8.03;100.00;102494.78;5113098;28;20104;-56
2023/04/19 04:41:26;;;;;;;21.90;15.45;;;;;;;7.94;100.00;102491.63;5112664;28;20469;-56
2023/04/19 04:43:52;;;;;;;18.05;14.70;;;;;;;7.87;100.00;102495.47;5112523;28;20027;-56
2023/04/19 04:46:17;;;;;;;19.83;15.43;;;;;;;7.76;100.00;102494.75;5112251;28;20094;-56
2023/04/19 04:48:43;;;;;;;19.65;13.75;;;;;;;7.72;100.00;102505.56;5113043;28;20023;-56
2023/04/19 04:51:08;;;;;;;18.00;14.40;;;;;;;7.65;100.00;102501.69;5112344;28;20106;-57
2023/04/19 04:53:33;;;;;;;17.13;14.00;;;;;;;7.60;100.00;102512.44;5112223;28;20076;-57
2023/04/19 04:55:59;;;;;;;16.70;13.93;;;;;;;7.51;100.00;102507.56;5113081;28;20378;-56
2023/04/19 04:58:24;;;;;;;17.58;14.65;;;;;;;7.42;100.00;102507.81;5112201;28;20023;-56
2023/04/19 05:00:49;;;;;;;17.08;13.68;;;;;;;7.38;100.00;102508.41;5112745;28;20046;-56
2023/04/19 05:03:15;;;;;;;18.48;13.73;;;;;;;7.33;100.00;102510.63;5112639;28;20101;-56
2023/04/19 05:05:40;;;;;;;18.55;15.10;;;;;;;7.30;100.00;102507.88;5112144;28;20023;-56
2023/04/19 05:08:06;;;;;;;19.73;14.32;;;;;;;7.24;100.00;102513.47;5112574;28;20020;-54
2023/04/19 05:10:31;;;;;;;20.27;14.75;;;;;;;7.21;100.00;102513.22;5112608;28;20076;-56
2023/04/19 05:12:56;;;;;;;19.33;15.38;;;;;;;7.15;100.00;102515.34;5111948;28;20019;-56
2023/04/19 05:15:22;;;;;;;19.15;14.88;;;;;;;7.14;100.00;102515.25;5112266;28;20032;-56
2023/04/19 05:17:47;;;;;;;21.33;15.48;;;;;;;7.13;100.00;102513.47;5112718;28;20382;-56
2023/04/19 05:20:12;;;;;;;20.02;15.25;;;;;;;7.14;100.00;102522.94;5112172;28;20038;-56
2023/04/19 05:22:38;;;;;;;19.85;15.13;;;;;;;7.09;100.00;102522.66;5113308;28;20486;-56
2023/04/19 05:25:04;;;;;;;20.80;14.65;;;;;;;7.07;100.00;102519.94;5116622;28;20023;-56
2023/04/19 05:27:29;;;;;;;19.23;14.68;;;;;;;7.05;100.00;102521.53;5115463;28;20352;-56
2023/04/19 05:29:54;;;;;;;19.02;14.73;;;;;;;7.06;100.00;102517.28;5116296;28;20031;-56
2023/04/19 05:32:20;;;;;;;20.17;14.38;;;;;;;7.05;100.00;102520.63;5116036;28;20083;-56
2023/04/19 05:34:45;;;;;;;17.45;14.05;;;;;;;7.03;100.00;102517.94;5115326;28;20020;-56
2023/04/19 05:37:10;;;;;;;23.02;14.82;;;;;;;7.01;100.00;102518.63;5115614;28;20368;-55
2023/04/19 05:39:36;;;;;;;19.38;14.07;;;;;;;7.00;100.00;102514.31;5115475;28;20493;-56
2023/04/19 05:42:01;;;;;;;19.55;14.93;;;;;;;6.99;100.00;102521.09;5115380;28;20036;-56
2023/04/19 05:44:26;;;;;;;19.50;14.15;;;;;;;6.98;100.00;102518.41;5115586;28;20035;-56
2023/04/19 05:46:51;;;;;;;17.60;13.65;;;;;;;7.00;100.00;102522.00;5115441;28;20474;-56
2023/04/19 05:49:17;;;;;;;18.45;13.70;;;;;;;7.04;100.00;102516.31;5115352;28;20493;-56
2023/04/19 05:51:42;;;;;;;19.45;13.75;;;;;;;7.11;100.00;102520.19;5115700;28;20023;-56
2023/04/19 05:54:11;;;;;;;17.77;13.35;;;;;;;7.17;100.00;102506.13;5115345;28;20027;-56
2023/04/19 05:56:36;;;;;;;18.40;13.25;;;;;;;7.25;100.00;102510.09;5115366;28;20028;-56
2023/04/19 05:59:02;;;;;;;18.88;12.82;;;;;;;7.33;100.00;102514.88;5115614;28;20035;-57
2023/04/19 06:01:27;;;;;;;19.13;13.55;;;;;;;7.43;100.00;102519.88;5114717;28;20135;-56
2023/04/19 06:03:53;;;;;;;17.02;13.15;;;;;;;7.56;99.61;102517.34;5115239;28;20042;-56
2023/04/19 06:06:22;;;;;;;15.38;12.43;;;;;;;7.71;98.43;102516.66;5115075;28;20459;-56
2023/04/19 06:08:48;;;;;;;16.88;12.27;;;;;;;7.85;96.93;102518.47;5114861;28;20031;-56
2023/04/19 06:11:13;;;;;;;17.33;12.55;;;;;;;7.98;95.84;102524.41;5115473;28;20475;-56
2023/04/19 06:13:38;;;;;;;15.30;11.60;;;;;;;8.10;94.09;102520.09;5115243;28;20139;-56
2023/04/19 06:16:04;;;;;;;15.20;11.85;;;;;;;8.23;94.13;102520.13;5114925;28;20024;-56
2023/04/19 06:18:30;;;;;;;16.05;11.75;;;;;;;8.40;92.93;102525.47;5114840;28;20027;-56
2023/04/19 06:20:55;;;;;;;16.50;11.10;;;;;;;8.44;90.50;102519.75;5115154;28;20467;-56
2023/04/19 06:23:20;;;;;;;16.92;11.88;;;;;;;8.41;90.12;102524.69;5114100;28;20027;-56
2023/04/19 06:25:49;;;;;;;15.15;10.98;;;;;;;8.39;87.21;102524.59;5115159;28;20216;-56
2023/04/19 06:28:14;;;;;;;16.58;11.15;;;;;;;8.43;87.71;102522.22;5115179;28;20024;-56
2023/04/19 06:30:40;;;;;;;15.82;10.63;;;;;;;8.46;86.45;102527.63;5114358;28;20023;-56
2023/04/19 06:33:05;;;;;;;13.93;11.10;;;;;;;8.55;85.76;102526.50;5114475;28;20027;-56
2023/04/19 06:35:31;;;;;;;16.27;11.05;;;;;;;8.66;85.00;102523.75;5114542;28;20031;-56
2023/04/19 06:37:56;;;;;;;16.85;11.25;;;;;;;8.82;84.85;102529.09;5113641;28;20019;-55
2023/04/19 06:40:21;;;;;;;13.68;10.48;;;;;;;8.84;82.44;102522.34;5114648;28;20061;-56
2023/04/19 06:42:47;;;;;;;16.27;10.65;;;;;;;8.89;82.36;102523.53;5115006;28;20102;-56
2023/04/19 06:45:13;;;;;;;14.43;10.63;;;;;;;8.85;80.20;102521.56;5114165;28;20031;-56
2023/04/19 06:47:39;;;;;;;17.40;10.85;;;;;;;8.83;81.04;102520.59;5114636;28;20023;-57
2023/04/19 06:50:05;;;;;;;16.10;11.13;;;;;;;8.84;80.49;102516.31;5114897;28;20103;-57
2023/04/19 06:52:30;;;;;;;15.18;10.38;;;;;;;8.84;81.67;102506.03;5113427;28;20028;-56
2023/04/19 06:54:56;;;;;;;14.10;10.40;;;;;;;8.85;79.63;102519.00;5114829;28;20492;-56
2023/04/19 06:57:21;;;;;;;15.27;9.43;;;;;;;8.88;80.26;102515.72;5113739;28;20031;-55
2023/04/19 06:59:46;;;;;;;17.63;10.25;;;;;;;8.94;80.10;102523.84;5114301;28;20084;-56
2023/04/19 07:02:11;;;;;;;14.60;10.25;;;;;;;8.98;78.61;102518.09;5114277;28;20035;-56
2023/04/19 07:04:37;;;;;;;15.95;10.35;;;;;;;9.03;79.38;102518.38;5113446;28;20034;-54
2023/04/19 07:07:03;;;;;;;20.55;10.30;;;;;;;9.04;79.92;102515.03;5114201;28;20015;-56
2023/04/19 07:09:28;;;;;;;13.48;9.88;;;;;;;9.09;78.64;102517.88;5114190;28;20470;-57
2023/04/19 07:11:53;;;;;;;16.27;9.57;;;;;;;9.15;80.11;102521.69;5113613;28;20024;-57
2023/04/19 07:14:19;;;;;;;16.73;9.65;;;;;;;9.21;78.59;102524.66;5112545;28;20016;-56
2023/04/19 07:16:45;;;;;;;17.58;9.60;;;;;;;9.22;78.82;102516.16;5113670;28;20023;-56
2023/04/19 07:19:11;;;;;;;11.55;9.00;;;;;;;9.28;75.62;102513.06;5112789;28;20020;-56
2023/04/19 07:21:38;;;;;;;15.15;9.77;;;;;;;9.40;77.52;102518.09;5112529;28;20047;-56
2023/04/19 07:24:05;;;;;;;15.23;9.38;;;;;;;9.41;74.45;102517.28;5112774;28;20422;-57
2023/04/19 07:26:30;;;;;;;16.03;10.33;;;;;;;9.52;76.15;102516.25;5112624;28;20028;-56
2023/04/19 07:28:55;;;;;;;13.82;9.32;;;;;;;9.58;73.02;102514.84;5112697;28;20092;-56
2023/04/19 07:31:21;;;;;;;17.42;10.38;;;;;;;9.60;74.29;102518.41;5112997;28;20020;-56
2023/04/19 07:33:46;;;;;;;15.20;9.95;;;;;;;9.66;75.55;102504.22;5112685;28;20026;-55
2023/04/19 07:36:11;;;;;;;12.98;9.90;;;;;;;9.65;72.21;102515.31;5112685;28;20062;-55
2023/04/19 07:38:37;;;;;;;12.93;9.57;;;;;;;9.74;75.75;102514.97;5112645;28;20387;-55
2023/04/19 07:41:04;;;;;;;14.82;9.77;;;;;;;9.77;74.31;102517.72;5112530;28;20087;-55
2023/04/19 07:43:29;;;;;;;11.38;9.15;;;;;;;9.81;70.47;102514.56;5112657;28;20031;-54
2023/04/19 07:45:54;;;;;;;16.08;9.55;;;;;;;9.84;71.31;102514.72;5112938;28;20368;-55
2023/04/19 07:48:20;;;;;;;21.40;10.30;;;;;;;9.92;73.23;102516.88;5111590;28;20485;-57
2023/04/19 07:50:45;;;;;;;15.40;9.60;;;;;;;9.97;73.68;102512.91;5112594;28;20031;-54
2023/04/19 07:53:11;;;;;;;14.57;9.23;;;;;;;9.96;71.55;102511.13;5112460;28;20032;-54
2023/04/19 07:55:36;;;;;;;13.75;8.73;;;;;;;10.01;69.69;102508.00;5111824;28;20016;-54
2023/04/19 07:58:01;;;;;;;14.20;8.90;;;;;;;10.10;73.11;102505.06;5113519;28;20032;-54
2023/04/19 08:00:28;;;;;;;17.48;9.38;;;;;;;10.10;69.35;102502.50;5112901;28;20020;-55
2023/04/19 08:02:55;;;;;;;12.13;9.23;;;;;;;10.19;69.90;102507.31;5112663;28;20044;-54
2023/04/19 08:05:22;;;;;;;12.07;8.93;;;;;;;10.27;69.34;102500.00;5112590;28;20356;-52
2023/04/19 08:07:47;;;;;;;10.95;8.40;;;;;;;10.32;67.91;102503.75;5112142;28;20539;-55
2023/04/19 08:10:13;;;;;;;16.00;8.55;;;;;;;10.43;69.26;102513.03;5113055;28;20027;-54
2023/04/19 08:12:39;;;;;;;13.35;9.27;;;;;;;10.46;63.73;102502.00;5113102;28;20024;-55
2023/04/19 08:15:07;;;;;;;12.75;8.82;;;;;;;10.49;63.96;102507.31;5112780;28;20039;-55
2023/04/19 08:17:32;;;;;;;;;;;;;;;10.66;70.56;102508.25;5113304;28;20374;-55
2023/04/19 08:19:58;;;;;;;12.23;8.73;;;;;;;10.75;63.53;102503.59;5113027;28;20347;-55
2023/04/19 08:22:24;;;;;;;17.52;9.50;;;;;;;10.95;66.12;102499.56;5112169;28;20019;-55
2023/04/19 08:24:50;;;;;;;12.18;8.85;;;;;;;11.00;60.92;102504.94;5113040;28;20081;-55
2023/04/19 08:27:16;;;;;;;14.63;9.55;;;;;;;11.14;65.49;102487.63;5113046;28;20024;-55
2023/04/19 08:29:41;;;;;;;14.52;8.57;;;;;;;11.18;64.13;102497.31;5112639;28;20035;-55
2023/04/19 08:32:06;;;;;;;13.40;9.35;;;;;;;11.23;60.36;102500.16;5112863;28;20099;-55
2023/04/19 08:34:36;;;;;;;11.80;8.27;;;;;;;11.25;58.02;102499.44;5113009;28;20026;-55
2023/04/19 08:37:02;;;;;;;11.05;8.18;;;;;;;11.37;58.71;102501.75;5112340;28;20050;-55
2023/04/19 08:39:29;;;;;;;13.75;7.68;;;;;;;11.47;56.53;102501.44;5112782;28;20036;-55
2023/04/19 08:41:56;;;;;;;10.60;7.38;;;;;;;11.44;53.31;102509.03;5113207;28;20023;-55
2023/04/19 08:44:23;;;;;;;11.55;7.53;;;;;;;11.44;54.02;102498.72;5111963;28;20027;-55
2023/04/19 08:46:49;;;;;;;14.23;7.50;;;;;;;11.53;54.30;102498.31;5113028;28;20063;-55
2023/04/19 08:49:15;;;;;;;10.18;6.85;;;;;;;11.51;54.68;102498.22;5113220;28;20031;-55
2023/04/19 08:51:41;;;;;;;10.55;6.72;;;;;;;11.60;53.22;102494.34;5112139;28;20186;-56
2023/04/19 08:54:08;;;;;;;11.70;6.95;;;;;;;11.66;52.21;102490.38;5112488;28;20409;-55
2023/04/19 08:56:33;;;;;;;8.15;6.20;;;;;;;11.80;53.28;102493.69;5113967;28;20413;-55
2023/04/19 08:58:58;;;;;;;8.98;5.85;;;;;;;11.81;50.63;102500.63;5116077;28;20457;-55
2023/04/19 09:01:24;;;;;;;8.65;5.43;;;;;;;11.86;50.06;102481.09;5116346;28;20080;-56
2023/04/19 09:03:49;;;;;;;11.50;6.03;;;;;;;11.96;50.32;102487.63;5116330;28;20036;-56
2023/04/19 09:06:15;;;;;;;8.05;5.55;;;;;;;12.26;52.07;102496.81;5116489;28;20036;-55
2023/04/19 09:08:41;;;;;;;10.48;5.43;;;;;;;12.24;49.84;102490.69;5116502;28;20024;-55
2023/04/19 09:11:07;;;;;;;13.45;6.15;;;;;;;12.25;51.47;102495.03;5116243;28;20016;-55
2023/04/19 09:13:35;;;;;;;10.05;6.28;;;;;;;12.30;52.75;102488.41;5116144;28;20032;-55
2023/04/19 09:16:00;;;;;;;7.80;5.75;;;;;;;12.44;50.96;102487.38;5116781;28;20475;-55
2023/04/19 09:18:26;;;;;;;10.60;5.60;;;;;;;12.38;48.88;102491.38;5115821;28;20073;-55
2023/04/19 09:20:56;;;;;;;7.60;5.15;;;;;;;12.54;50.75;102488.72;5116575;28;20103;-55
2023/04/19 09:23:24;;;;;;;8.02;5.03;;;;;;;12.56;48.54;102486.19;5115844;28;20031;-55
2023/04/19 09:25:56;;;;;;;11.50;4.82;;;;;;;12.67;46.80;102490.19;5115938;28;20019;-55
2023/04/19 09:28:22;;;;;;;7.45;4.20;;;;;;;12.61;44.57;102495.94;5115739;28;20024;-56
2023/04/19 09:30:47;;;;;;;10.32;6.43;;;;;;;12.58;44.11;102495.78;5116483;28;20101;-55
2023/04/19 09:33:13;;;;;;;6.85;4.72;;;;;;;12.68;45.88;102492.84;5115651;28;20023;-55
2023/04/19 09:35:48;;;;;;;8.25;4.88;;;;;;;12.85;46.62;102493.63;5116014;28;20063;-55
2023/04/19 09:38:15;;;;;;;8.80;4.78;;;;;;;12.95;45.48;102494.03;5115786;28;20031;-55
2023/04/19 09:40:41;;;;;;;8.38;5.00;;;;;;;13.11;47.54;102495.66;5115133;28;20019;-55
2023/04/19 09:43:07;;;;;;;7.72;5.00;;;;;;;13.05;48.11;102488.47;5116035;28;20024;-55
2023/04/19 09:45:43;;;;;;;6.20;4.55;;;;;;;13.18;45.50;102496.00;5115907;28;20034;-55
2023/04/19 09:48:10;;;;;;;7.25;4.78;;;;;;;13.48;44.44;102484.38;5115386;28;20028;-55
2023/04/19 09:50:50;;;;;;;6.45;4.55;;;;;;;13.40;43.87;102475.38;5115531;28;20501;-55
2023/04/19 09:53:16;;;;;;;6.45;4.60;;;;;;;13.95;45.89;102479.47;5114913;28;20066;-55
2023/04/19 09:55:43;;;;;;;6.93;4.32;;;;;;;14.11;45.98;102481.88;5115729;28;20023;-55
2023/04/19 09:58:08;;;;;;;9.25;4.60;;;;;;;14.60;44.46;102464.81;5114399;28;20379;-55
2023/04/19 10:00:34;;;;;;;9.00;4.53;;;;;;;15.19;45.52;102477.41;5114066;28;20471;-55
2023/04/19 10:03:00;;;;;;;6.75;4.30;;;;;;;15.57;40.61;102474.41;5114544;28;20074;-55
2023/04/19 10:05:25;;;;;;;6.75;4.05;;;;;;;16.45;41.59;102477.38;5114816;28;20047;-55
2023/04/19 10:07:51;;;;;;;8.98;4.35;;;;;;;16.51;38.74;102474.06;5112977;28;20028;-55
2023/04/19 10:10:17;;;;;;;8.00;4.78;;;;;;;16.65;38.04;102477.09;5114923;28;20024;-56
2023/04/19 10:12:48;;;;;;;9.85;3.72;;;;;;;16.85;36.54;102469.88;5115619;28;20030;-55
2023/04/19 10:15:13;;;;;;;8.60;3.50;;;;;;;16.79;34.10;102470.56;5115006;28;20115;-55
2023/04/19 10:17:40;;;;;;;8.80;3.72;;;;;;;17.33;35.61;102472.16;5114920;28;20114;-55
2023/04/19 10:20:09;;;;;;;6.07;3.40;;;;;;;17.76;32.45;102473.28;5115358;28;20015;-55
2023/04/19 10:22:38;;;;;;;7.47;2.60;;;;;;;17.39;31.76;102474.94;5112955;28;20391;-55
2023/04/19 10:25:14;;;;;;;7.20;2.65;;;;;;;18.17;31.00;102479.56;5115222;28;20034;-55
2023/04/19 10:27:45;;;;;;;3.60;2.13;;;;;;;17.99;28.37;102475.66;5113889;28;20039;-55
2023/04/19 10:30:21;;;;;;;7.63;2.50;;;;;;;18.47;29.56;102475.91;5113823;28;20027;-55
2023/04/19 10:32:57;;;;;;;5.00;2.15;;;;;;;18.73;29.55;102466.03;5114544;28;20024;-55
2023/04/19 10:35:33;;;;;;;4.53;2.05;;;;;;;18.86;28.34;102475.00;5113934;28;20024;-55
2023/04/19 10:38:35;;;;;;;6.60;2.00;;;;;;;19.62;31.29;102464.31;5113967;28;20039;-56
2023/04/19 10:41:02;;;;;;;5.55;2.40;;;;;;;19.26;26.12;102460.16;5100927;28;20502;-55
2023/04/19 10:43:29;;;;;;;4.72;2.40;;;;;;;19.19;28.78;102463.53;5113499;28;20081;-56
2023/04/19 10:46:21;;;;;;;4.35;1.65;;;;;;;19.05;29.84;102466.72;5114386;28;20050;-56
2023/04/19 10:48:57;;;;;;;5.10;2.00;;;;;;;19.07;27.05;102470.28;5114026;28;20121;-56
2023/04/19 10:51:26;;;;;;;7.25;2.13;;;;;;;19.39;26.20;102470.03;5113502;28;20092;-56
2023/04/19 10:53:56;;;;;;;5.10;2.33;;;;;;;19.43;27.30;102468.31;5114238;28;20107;-56
2023/04/19 10:56:58;;;;;;;4.55;1.88;;;;;;;19.74;28.12;102453.19;5113808;28;20111;-56
2023/04/19 10:59:24;;;;;;;4.60;1.70;;;;;;;19.63;26.07;102446.91;5101360;28;20037;-54
2023/04/19 11:01:55;;;;;;;4.35;1.70;;;;;;;20.03;25.83;102458.94;5072799;28;20123;-56
2023/04/19 11:04:49;;;;;;;3.30;1.85;;;;;;;20.45;26.57;102456.06;5072153;28;20145;-56
2023/04/19 11:07:17;;;;;;;6.72;2.10;;;;;;;20.29;26.14;102460.22;5072512;28;20028;-56
2023/04/19 11:09:47;;;;;;;6.20;2.05;;;;;;;20.04;24.77;102447.63;5072684;28;20016;-56
2023/04/19 11:12:14;;;;;;;5.78;2.25;;;;;;;19.50;25.67;102449.28;5072602;28;20024;-56
2023/04/19 11:14:41;;;;;;;3.75;1.95;;;;;;;19.56;28.48;102458.97;5073238;28;20020;-56